EZY911 LFMU-EGCC
Flight info
| Callsign | EZY911 |
|---|---|
| Flight time | N/A |
| Altitude | 36000 |
| Route | AFRIC G39 GAI/N0455F340 DCT SECHE DCT UVELI DCT CNA DCT TUPAR UN861 ANG DCT AKIKI UN867 AVANT UM184 HEMEL T420 ELVOS |
| Aircraft | A320/M-SDE3FGHIRWY/LB1 |
Departure
| Time | 2026-04-28 00:34 |
|---|---|
| Airport | Béziers Vias airport (LFMU) |
Arrival
| Time | N/A |
|---|---|
| Airport | Manchester Airport (EGCC) |
| Time | Latitude | Longitude | Altitude | Speed | Heading |
|---|---|---|---|---|---|
| 2026-04-28 00:19 | 43.32134 | 3.35396 | 55 ft | 0 kts | 308° |
| 2026-04-28 00:30 | 43.32138 | 3.35388 | 55 ft | 4 kts | 309° |
| 2026-04-28 00:30 | 43.32180 | 3.35333 | 54 ft | 9 kts | 321° |
| 2026-04-28 00:30 | 43.32214 | 3.35323 | 55 ft | 5 kts | 2° |
| 2026-04-28 00:30 | 43.32248 | 3.35327 | 56 ft | 4 kts | 6° |
| 2026-04-28 00:31 | 43.32285 | 3.35333 | 56 ft | 6 kts | 5° |
| 2026-04-28 00:31 | 43.32346 | 3.35284 | 57 ft | 16 kts | 280° |
| 2026-04-28 00:31 | 43.32355 | 3.35079 | 55 ft | 25 kts | 274° |
| 2026-04-28 00:31 | 43.32368 | 3.34838 | 55 ft | 24 kts | 274° |
| 2026-04-28 00:32 | 43.32381 | 3.34616 | 57 ft | 22 kts | 274° |
| 2026-04-28 00:32 | 43.32397 | 3.34340 | 55 ft | 21 kts | 275° |
| 2026-04-28 00:32 | 43.32389 | 3.34250 | 54 ft | 13 kts | 243° |
| 2026-04-28 00:32 | 43.32394 | 3.34197 | 54 ft | 4 kts | 358° |
| 2026-04-28 00:33 | 43.32403 | 3.34242 | 54 ft | 7 kts | 94° |
| 2026-04-28 00:33 | 43.32382 | 3.34604 | 57 ft | 74 kts | 94° |
| 2026-04-28 00:33 | 43.32326 | 3.35617 | 58 ft | 137 kts | 94° |
| 2026-04-28 00:33 | 43.32240 | 3.37102 | 278 ft | 165 kts | 95° |
| 2026-04-28 00:34 | 43.32129 | 3.38632 | 929 ft | 162 kts | 94° |
| 2026-04-28 00:34 | 43.32029 | 3.40169 | 1393 ft | 168 kts | 94° |
| 2026-04-28 00:34 | 43.32005 | 3.41784 | 1892 ft | 171 kts | 75° |
| 2026-04-28 00:34 | 43.32671 | 3.43111 | 2298 ft | 178 kts | 33° |
| 2026-04-28 00:35 | 43.33865 | 3.43640 | 2701 ft | 187 kts | 1° |
| 2026-04-28 00:35 | 43.35178 | 3.43269 | 2911 ft | 209 kts | 332° |
| 2026-04-28 00:35 | 43.36217 | 3.41730 | 3135 ft | 233 kts | 290° |
| 2026-04-28 00:35 | 43.36344 | 3.39495 | 3659 ft | 247 kts | 257° |
| 2026-04-28 00:36 | 43.35709 | 3.37239 | 4152 ft | 262 kts | 250° |
| 2026-04-28 00:36 | 43.35426 | 3.34797 | 4788 ft | 267 kts | 281° |
| 2026-04-28 00:36 | 43.36197 | 3.32550 | 5528 ft | 267 kts | 315° |
| 2026-04-28 00:36 | 43.37745 | 3.31202 | 6262 ft | 268 kts | 338° |
| 2026-04-28 00:37 | 43.39465 | 3.30154 | 6950 ft | 274 kts | 333° |
| 2026-04-28 00:37 | 43.41147 | 3.28868 | 7641 ft | 279 kts | 328° |
| 2026-04-28 00:37 | 43.42757 | 3.27399 | 8345 ft | 282 kts | 324° |
| 2026-04-28 00:37 | 43.44846 | 3.25246 | 9255 ft | 287 kts | 321° |
| 2026-04-28 00:38 | 43.45890 | 3.24102 | 9693 ft | 290 kts | 320° |
| 2026-04-28 00:38 | 43.47455 | 3.22338 | 10346 ft | 294 kts | 319° |
| 2026-04-28 00:38 | 43.49056 | 3.20497 | 10740 ft | 308 kts | 319° |
| 2026-04-28 00:38 | 43.50743 | 3.18531 | 11036 ft | 325 kts | 319° |
| 2026-04-28 00:39 | 43.52500 | 3.16472 | 11319 ft | 341 kts | 318° |
| 2026-04-28 00:39 | 43.54327 | 3.14323 | 11618 ft | 355 kts | 318° |
| 2026-04-28 00:39 | 43.56211 | 3.12102 | 12159 ft | 361 kts | 318° |
| 2026-04-28 00:39 | 43.58125 | 3.09845 | 12828 ft | 362 kts | 318° |
| 2026-04-28 00:40 | 43.60031 | 3.07594 | 13477 ft | 364 kts | 318° |
| 2026-04-28 00:40 | 43.61965 | 3.05307 | 14102 ft | 366 kts | 318° |
| 2026-04-28 00:40 | 43.63874 | 3.03045 | 14689 ft | 369 kts | 318° |
| 2026-04-28 00:40 | 43.65821 | 3.00739 | 15282 ft | 371 kts | 318° |
| 2026-04-28 00:41 | 43.67778 | 2.98414 | 15839 ft | 374 kts | 318° |
| 2026-04-28 00:41 | 43.69776 | 2.96040 | 16373 ft | 377 kts | 318° |
| 2026-04-28 00:41 | 43.71756 | 2.93688 | 16872 ft | 381 kts | 318° |
| 2026-04-28 00:41 | 43.73747 | 2.91319 | 17401 ft | 383 kts | 319° |
| 2026-04-28 00:42 | 43.75710 | 2.88825 | 17904 ft | 385 kts | 311° |
| 2026-04-28 00:42 | 43.77283 | 2.85792 | 18422 ft | 387 kts | 298° |
| 2026-04-28 00:42 | 43.78316 | 2.82383 | 18918 ft | 389 kts | 287° |
| 2026-04-28 00:42 | 43.79013 | 2.78783 | 19419 ft | 391 kts | 284° |
| 2026-04-28 00:43 | 43.79675 | 2.75098 | 19900 ft | 394 kts | 284° |
| 2026-04-28 00:43 | 43.80333 | 2.71422 | 20377 ft | 396 kts | 283° |
| 2026-04-28 00:43 | 43.80993 | 2.67772 | 20840 ft | 398 kts | 283° |
| 2026-04-28 00:43 | 43.81681 | 2.64002 | 21305 ft | 401 kts | 284° |
| 2026-04-28 00:44 | 43.82358 | 2.60317 | 21740 ft | 403 kts | 283° |
| 2026-04-28 00:44 | 43.83049 | 2.56527 | 22170 ft | 405 kts | 283° |
| 2026-04-28 00:44 | 43.83705 | 2.52732 | 22596 ft | 408 kts | 282° |
| 2026-04-28 00:44 | 43.84351 | 2.48923 | 23017 ft | 410 kts | 282° |
| 2026-04-28 00:45 | 43.84999 | 2.45078 | 23413 ft | 412 kts | 282° |
| 2026-04-28 00:45 | 43.85646 | 2.41236 | 23805 ft | 414 kts | 282° |
| 2026-04-28 00:45 | 43.86305 | 2.37319 | 24197 ft | 417 kts | 282° |
| 2026-04-28 00:45 | 43.86960 | 2.33424 | 24575 ft | 419 kts | 281° |
| 2026-04-28 00:46 | 43.87621 | 2.29483 | 24965 ft | 420 kts | 281° |
| 2026-04-28 00:46 | 43.88273 | 2.25595 | 25326 ft | 422 kts | 281° |
| 2026-04-28 00:46 | 43.88943 | 2.21584 | 25674 ft | 424 kts | 281° |
| 2026-04-28 00:46 | 43.89603 | 2.17621 | 26001 ft | 426 kts | 281° |
| 2026-04-28 00:47 | 43.90270 | 2.13614 | 26331 ft | 428 kts | 281° |
| 2026-04-28 00:47 | 43.90935 | 2.09595 | 26658 ft | 430 kts | 281° |
| 2026-04-28 00:47 | 43.91602 | 2.05568 | 26966 ft | 431 kts | 281° |
| 2026-04-28 00:47 | 43.92269 | 2.01540 | 27264 ft | 433 kts | 281° |
| 2026-04-28 00:48 | 43.92939 | 1.97482 | 27541 ft | 435 kts | 281° |
| 2026-04-28 00:48 | 43.93609 | 1.93417 | 27812 ft | 436 kts | 281° |
| 2026-04-28 00:48 | 43.94292 | 1.89278 | 28072 ft | 438 kts | 282° |
| 2026-04-28 00:48 | 43.95106 | 1.85201 | 28315 ft | 441 kts | 285° |
| 2026-04-28 00:49 | 43.96133 | 1.81213 | 28571 ft | 444 kts | 290° |
| 2026-04-28 00:49 | 43.97373 | 1.77316 | 28795 ft | 446 kts | 294° |
| 2026-04-28 00:49 | 43.98801 | 1.73431 | 29027 ft | 448 kts | 295° |
| 2026-04-28 00:49 | 44.00234 | 1.69642 | 29332 ft | 447 kts | 296° |
| 2026-04-28 00:50 | 44.01685 | 1.65817 | 29688 ft | 445 kts | 295° |
| 2026-04-28 00:50 | 44.03115 | 1.62039 | 30037 ft | 443 kts | 295° |
| 2026-04-28 00:50 | 44.04535 | 1.58276 | 30334 ft | 443 kts | 295° |
| 2026-04-28 00:50 | 44.05967 | 1.54468 | 30641 ft | 441 kts | 296° |
| 2026-04-28 00:51 | 44.07374 | 1.50719 | 30958 ft | 440 kts | 296° |
| 2026-04-28 00:51 | 44.08773 | 1.46987 | 31291 ft | 438 kts | 296° |
| 2026-04-28 00:51 | 44.10183 | 1.43216 | 31627 ft | 435 kts | 296° |
| 2026-04-28 00:51 | 44.11568 | 1.39506 | 31910 ft | 434 kts | 296° |
| 2026-04-28 00:52 | 44.12949 | 1.35804 | 32176 ft | 433 kts | 296° |